Time;durP1;ratioP1;P1;durP2;ratioP2;P2;SDS_P1;SDS_P2;PMS_P1;PMS_P2;Temp;Humidity;BMP_temperature;BMP_pressure;BME280_temperature;BME280_humidity;BME280_pressure;Samples;Min_cycle;Max_cycle;Signal;HPM_P1;HPM_P2
2022/12/09 00:01:16;;;;;;;21.70;13.63;;;4.40;99.90;;;;;;4977282;28;20042;-88
2022/12/09 00:03:42;;;;;;;19.30;13.43;;;3.20;99.90;;;;;;4994048;28;20050;-88
2022/12/09 00:06:10;;;;;;;20.77;13.13;;;3.20;99.90;;;;;;4977892;28;20573;-88
2022/12/09 00:08:36;;;;;;;21.98;13.65;;;3.20;99.90;;;;;;4994321;28;20081;-88
2022/12/09 00:11:02;;;;;;;23.58;14.73;;;3.50;99.90;;;;;;4977769;28;20070;-88
2022/12/09 00:13:28;;;;;;;20.50;13.38;;;3.10;99.90;;;;;;4978201;28;20490;-88
2022/12/09 00:15:55;;;;;;;24.20;14.15;;;4.30;99.90;;;;;;4994161;28;20073;-87
2022/12/09 00:18:21;;;;;;;24.83;15.13;;;3.10;99.90;;;;;;4978239;28;20053;-88
2022/12/09 00:20:46;;;;;;;22.27;14.70;;;3.10;99.90;;;;;;4994253;28;20065;-88
2022/12/09 00:23:12;;;;;;;22.90;14.52;;;3.10;99.90;;;;;;4994120;28;20065;-88
2022/12/09 00:25:38;;;;;;;21.70;14.18;;;3.10;99.90;;;;;;4962137;28;20072;-88
2022/12/09 00:28:04;;;;;;;21.67;13.60;;;3.10;99.90;;;;;;4978408;28;20050;-88
2022/12/09 00:30:29;;;;;;;23.77;14.85;;;3.10;99.90;;;;;;4994198;28;20462;-88
2022/12/09 00:32:55;;;;;;;24.23;14.60;;;3.40;99.90;;;;;;4977583;28;20038;-88
2022/12/09 00:35:21;;;;;;;22.15;15.13;;;3.10;99.90;;;;;;4978330;28;20100;-88
2022/12/09 00:37:47;;;;;;;22.00;14.88;;;3.10;99.90;;;;;;4977521;28;20529;-87
2022/12/09 00:40:14;;;;;;;22.70;14.95;;;3.10;99.90;;;;;;4971233;28;20050;-88
2022/12/09 00:42:40;;;;;;;23.23;15.07;;;3.10;99.90;;;;;;4995222;28;20046;-88
2022/12/09 00:45:06;;;;;;;25.70;16.17;;;3.10;99.90;;;;;;4994454;28;20509;-88
2022/12/09 00:47:33;;;;;;;25.48;15.80;;;3.10;99.90;;;;;;4969576;28;20426;-87
2022/12/09 00:49:58;;;;;;;25.63;15.38;;;3.10;99.90;;;;;;5002218;28;20494;-87
2022/12/09 00:52:24;;;;;;;23.50;15.77;;;3.30;99.90;;;;;;4977348;28;20038;-88
2022/12/09 00:54:50;;;;;;;24.25;15.27;;;3.10;99.90;;;;;;4978594;28;20133;-88
2022/12/09 00:57:15;;;;;;;22.70;14.93;;;3.00;99.90;;;;;;4993034;28;20053;-88
2022/12/09 00:59:41;;;;;;;23.73;16.33;;;3.60;99.90;;;;;;4975246;28;20125;-88
2022/12/09 01:02:07;;;;;;;27.77;16.90;;;3.00;99.90;;;;;;4977682;28;20728;-88
2022/12/09 01:04:32;;;;;;;25.55;15.20;;;3.00;99.90;;;;;;4962378;28;20070;-87
2022/12/09 01:06:58;;;;;;;23.25;14.68;;;3.00;99.90;;;;;;4993268;28;20050;-88
2022/12/09 01:09:24;;;;;;;23.02;15.05;;;3.00;99.90;;;;;;4961969;28;20034;-88
2022/12/09 01:11:49;;;;;;;22.35;14.18;;;3.00;99.90;;;;;;4978266;28;20118;-88
2022/12/09 01:14:15;;;;;;;23.63;13.88;;;3.00;99.90;;;;;;4961298;28;20044;-87
2022/12/09 01:16:41;;;;;;;21.70;14.30;;;3.10;99.90;;;;;;4979851;28;20108;-88
2022/12/09 01:19:09;;;;;;;21.10;12.73;;;3.00;99.90;;;;;;4981146;28;20074;-88
2022/12/09 01:21:35;;;;;;;20.58;12.85;;;3.00;99.90;;;;;;4980826;28;20128;-88
2022/12/09 01:24:07;;;;;;;18.88;12.82;;;3.00;99.90;;;;;;4982660;28;20046;-88
2022/12/09 01:26:33;;;;;;;18.25;12.73;;;3.10;99.90;;;;;;5009260;28;20038;-88
2022/12/09 01:28:58;;;;;;;20.90;12.90;;;4.30;99.90;;;;;;5014058;28;20459;-88
2022/12/09 01:31:24;;;;;;;18.65;12.25;;;3.70;99.90;;;;;;4991462;28;20042;-88
2022/12/09 01:33:50;;;;;;;19.33;11.20;;;3.10;99.90;;;;;;4992416;28;20046;-87
2022/12/09 01:36:22;;;;;;;19.27;11.52;;;3.00;99.90;;;;;;5000875;28;20043;-89
2022/12/09 01:38:48;;;;;;;12.75;8.80;;;4.10;99.90;;;;;;5003711;28;20057;-88
2022/12/09 01:41:16;;;;;;;16.55;9.75;;;3.60;99.90;;;;;;5001332;28;20056;-88
2022/12/09 01:43:42;;;;;;;13.43;9.38;;;3.20;99.90;;;;;;4997333;28;20047;-88
2022/12/09 01:46:08;;;;;;;14.23;10.05;;;3.10;99.90;;;;;;4981534;28;20045;-88
2022/12/09 01:48:44;;;;;;;13.85;9.23;;;2.90;99.90;;;;;;4972671;28;20491;-87
2022/12/09 01:51:15;;;;;;;15.77;8.65;;;2.90;99.90;;;;;;4972022;28;20101;-88
2022/12/09 01:53:44;;;;;;;13.57;8.82;;;3.50;99.90;;;;;;4980323;28;20038;-88
2022/12/09 01:56:31;;;;;;;13.00;8.38;;;3.90;99.90;;;;;;4997699;28;20045;-88
2022/12/09 01:59:01;;;;;;;12.82;8.32;;;2.90;99.90;;;;;;4997243;28;20085;-88
2022/12/09 02:01:27;;;;;;;13.20;7.50;;;2.90;99.90;;;;;;4981262;28;20043;-87
2022/12/09 02:03:53;;;;;;;12.23;7.90;;;3.80;99.90;;;;;;4999417;28;20051;-87
2022/12/09 02:06:19;;;;;;;14.23;7.90;;;2.80;99.90;;;;;;4999396;28;20073;-88
2022/12/09 02:08:46;;;;;;;11.57;7.90;;;2.80;99.90;;;;;;4966575;28;20042;-88
2022/12/09 02:11:33;;;;;;;13.10;8.65;;;2.80;99.90;;;;;;5001932;28;20092;-87
2022/12/09 02:14:17;;;;;;;12.88;8.05;;;2.80;99.90;;;;;;4991301;28;20045;-87
2022/12/09 02:17:03;;;;;;;12.43;7.85;;;2.80;99.90;;;;;;4995910;28;20050;-88
2022/12/09 02:20:00;;;;;;;16.98;8.15;;;2.70;99.90;;;;;;4996432;28;20053;-88
2022/12/09 02:22:54;;;;;;;10.75;7.63;;;2.70;99.90;;;;;;4966135;28;20127;-88
2022/12/09 02:25:40;;;;;;;12.40;8.55;;;2.70;99.90;;;;;;4979852;28;20453;-88
2022/12/09 02:28:27;;;;;;;11.63;7.75;;;2.70;99.90;;;;;;4974276;28;20059;-88
2022/12/09 02:31:20;;;;;;;15.30;8.35;;;2.70;99.90;;;;;;4996840;28;20053;-88
2022/12/09 02:34:17;;;;;;;14.52;8.35;;;2.70;99.90;;;;;;4974045;28;20050;-88
2022/12/09 02:36:58;;;;;;;14.18;8.27;;;2.70;99.90;;;;;;5013263;28;20034;-87
2022/12/09 02:39:42;;;;;;;16.08;8.25;;;2.70;99.90;;;;;;4981418;28;20042;-88
2022/12/09 02:42:10;;;;;;;11.68;7.40;;;2.70;99.90;;;;;;5013536;28;20395;-88
2022/12/09 02:44:38;;;;;;;12.93;8.48;;;2.80;99.90;;;;;;4995604;28;20038;-88
2022/12/09 02:47:07;;;;;;;13.23;8.15;;;2.80;99.90;;;;;;4996023;28;20482;-88
2022/12/09 02:49:34;;;;;;;15.90;8.50;;;3.10;99.90;;;;;;4978685;28;20418;-88
2022/12/09 02:52:02;;;;;;;13.55;8.40;;;2.70;99.90;;;;;;4963215;28;20038;-88
2022/12/09 02:54:32;;;;;;;13.05;8.55;;;2.70;99.90;;;;;;4978571;28;20471;-88
2022/12/09 02:57:03;;;;;;;14.52;8.77;;;2.70;99.90;;;;;;4994676;28;20048;-88
2022/12/09 02:59:29;;;;;;;13.32;8.65;;;2.70;99.90;;;;;;4979450;28;20116;-88
2022/12/09 03:02:18;;;;;;;13.68;8.68;;;2.70;99.90;;;;;;4978686;28;20503;-88
2022/12/09 03:04:48;;;;;;;13.98;8.75;;;2.70;99.90;;;;;;4995393;28;20410;-88
2022/12/09 03:07:39;;;;;;;15.48;8.82;;;2.70;99.90;;;;;;4977251;28;20093;-87
2022/12/09 03:10:16;;;;;;;15.02;9.02;;;2.70;99.90;;;;;;4979885;28;20046;-88
2022/12/09 03:12:48;;;;;;;13.18;8.82;;;2.70;99.90;;;;;;4985181;28;20038;-87
2022/12/09 03:15:21;;;;;;;13.25;7.97;;;2.60;99.90;;;;;;4995103;28;20108;-88
2022/12/09 03:17:48;;;;;;;12.35;8.02;;;2.60;99.90;;;;;;4994173;28;20053;-88
2022/12/09 03:20:25;;;;;;;13.07;8.40;;;2.50;99.90;;;;;;4971790;28;20042;-88
2022/12/09 03:22:56;;;;;;;14.70;9.15;;;2.50;99.90;;;;;;4995827;28;20046;-87
2022/12/09 03:25:31;;;;;;;16.13;9.07;;;3.20;99.90;;;;;;4978574;28;20060;-88
2022/12/09 03:28:02;;;;;;;13.82;9.02;;;2.40;99.90;;;;;;4979048;28;20042;-88
2022/12/09 03:30:35;;;;;;;14.30;8.90;;;2.40;99.90;;;;;;4977942;28;20031;-88
2022/12/09 03:33:03;;;;;;;14.95;9.43;;;2.40;99.90;;;;;;4995045;28;20368;-88
2022/12/09 03:35:40;;;;;;;16.75;9.65;;;2.40;99.90;;;;;;4994842;28;20046;-88
2022/12/09 03:38:09;;;;;;;14.35;9.00;;;2.40;99.90;;;;;;4994270;28;20041;-88
2022/12/09 03:40:35;;;;;;;15.20;9.77;;;3.00;99.90;;;;;;4994023;28;20049;-88
2022/12/09 03:43:14;;;;;;;13.68;9.20;;;3.10;99.90;;;;;;4979155;28;20038;-88
2022/12/09 03:45:41;;;;;;;14.07;9.05;;;2.20;99.90;;;;;;4994418;28;20045;-88
2022/12/09 03:48:07;;;;;;;15.85;9.63;;;3.00;99.90;;;;;;4995121;28;20101;-88
2022/12/09 03:50:40;;;;;;;15.07;9.65;;;2.50;99.90;;;;;;4962590;28;20048;-88
2022/12/09 03:53:11;;;;;;;16.35;10.27;;;2.30;99.90;;;;;;5009380;28;20121;-88
2022/12/09 03:56:00;;;;;;;15.32;9.73;;;2.30;99.90;;;;;;4970446;28;20046;-88
2022/12/09 03:58:30;;;;;;;15.10;9.65;;;2.30;99.90;;;;;;4978647;28;20042;-89
2022/12/09 04:00:56;;;;;;;15.80;9.80;;;2.30;99.90;;;;;;4968819;28;20117;-88
2022/12/09 04:03:22;;;;;;;16.85;11.02;;;2.30;99.90;;;;;;4994270;28;20529;-88
2022/12/09 04:05:47;;;;;;;16.08;10.73;;;2.30;99.90;;;;;;4977547;28;20046;-88
2022/12/09 04:08:13;;;;;;;16.55;9.90;;;2.30;99.90;;;;;;4977553;28;20130;-88
2022/12/09 04:10:39;;;;;;;14.23;9.45;;;2.40;99.90;;;;;;4993368;28;20121;-88
2022/12/09 04:13:05;;;;;;;17.25;10.25;;;2.40;99.90;;;;;;4977951;28;20037;-88
2022/12/09 04:15:30;;;;;;;17.25;10.75;;;2.40;99.90;;;;;;4994737;28;20058;-88
2022/12/09 04:17:56;;;;;;;16.80;10.63;;;2.40;99.90;;;;;;4966978;28;20042;-88
2022/12/09 04:20:22;;;;;;;16.55;10.55;;;2.40;99.90;;;;;;4994525;28;20038;-88
2022/12/09 04:22:48;;;;;;;17.85;10.90;;;2.40;99.90;;;;;;4995142;28;20049;-88
2022/12/09 04:25:13;;;;;;;17.58;11.02;;;3.90;99.90;;;;;;4999269;28;20426;-88
2022/12/09 04:27:39;;;;;;;18.27;11.07;;;2.30;99.90;;;;;;5003773;28;20129;-87
2022/12/09 04:30:05;;;;;;;18.30;11.02;;;2.30;99.90;;;;;;4984129;28;20066;-88
2022/12/09 04:32:32;;;;;;;19.25;11.23;;;2.30;99.90;;;;;;5014472;28;20459;-88
2022/12/09 04:34:57;;;;;;;17.75;11.07;;;2.20;99.90;;;;;;4994067;28;20045;-88
2022/12/09 04:37:23;;;;;;;17.85;10.82;;;2.20;99.90;;;;;;4994608;28;20050;-88
2022/12/09 04:39:49;;;;;;;20.17;11.82;;;2.10;99.90;;;;;;4978031;28;20047;-88
2022/12/09 04:42:14;;;;;;;15.77;10.48;;;2.10;99.90;;;;;;4992877;28;20118;-88
2022/12/09 04:44:40;;;;;;;18.35;11.48;;;3.30;99.90;;;;;;4971308;28;20065;-88
2022/12/09 04:47:06;;;;;;;17.30;11.32;;;2.00;99.90;;;;;;4977331;28;20050;-88
2022/12/09 04:49:31;;;;;;;17.33;10.48;;;1.90;99.90;;;;;;4977701;28;20513;-88
2022/12/09 04:51:57;;;;;;;16.67;10.48;;;1.90;99.90;;;;;;4982123;28;20046;-88
2022/12/09 04:54:23;;;;;;;18.92;11.10;;;1.80;99.90;;;;;;4982339;28;20079;-88
2022/12/09 04:56:48;;;;;;;18.05;11.10;;;2.30;99.90;;;;;;4949819;28;20442;-88
2022/12/09 04:59:15;;;;;;;17.90;11.27;;;2.50;99.90;;;;;;5007489;28;20136;-87
2022/12/09 05:01:41;;;;;;;16.08;11.02;;;1.80;99.90;;;;;;4983828;28;20042;-87
2022/12/09 05:04:06;;;;;;;18.45;11.50;;;3.20;99.90;;;;;;4984273;28;20058;-88
2022/12/09 05:06:32;;;;;;;19.80;12.55;;;2.20;99.90;;;;;;4983156;28;20517;-87
2022/12/09 05:08:58;;;;;;;23.15;13.90;;;1.70;99.90;;;;;;5011371;28;20100;-88
2022/12/09 05:11:24;;;;;;;21.10;13.35;;;1.70;99.90;;;;;;4966326;28;20125;-88
2022/12/09 05:13:52;;;;;;;23.92;15.05;;;1.80;99.90;;;;;;5015570;28;20081;-88
2022/12/09 05:16:18;;;;;;;27.13;15.75;;;2.70;99.90;;;;;;5031168;28;20055;-88
2022/12/09 05:18:45;;;;;;;21.00;12.98;;;1.60;99.90;;;;;;5000359;28;20185;-87
2022/12/09 05:21:13;;;;;;;21.80;13.82;;;1.60;99.90;;;;;;4988018;28;20062;-88
2022/12/09 05:23:40;;;;;;;21.75;12.38;;;3.20;99.90;;;;;;5001663;28;20046;-87
2022/12/09 05:26:09;;;;;;;22.30;13.80;;;1.50;99.90;;;;;;4998366;28;20043;-88
2022/12/09 05:28:36;;;;;;;21.10;13.35;;;2.30;99.90;;;;;;4998276;28;20057;-88
2022/12/09 05:31:03;;;;;;;24.42;14.10;;;1.50;99.90;;;;;;4973837;28;20038;-87
2022/12/09 05:33:29;;;;;;;22.95;13.20;;;1.40;99.90;;;;;;4997670;28;20034;-88
2022/12/09 05:35:55;;;;;;;24.40;12.45;;;1.40;99.90;;;;;;5005393;28;20046;-87
2022/12/09 05:38:21;;;;;;;22.80;13.55;;;1.30;99.90;;;;;;4996997;28;20026;-88
2022/12/09 05:40:47;;;;;;;20.20;11.80;;;1.20;99.90;;;;;;4964236;28;20044;-87
2022/12/09 05:43:12;;;;;;;23.75;13.95;;;1.20;99.90;;;;;;5004816;28;20053;-87
2022/12/09 05:45:38;;;;;;;21.95;13.45;;;1.20;99.90;;;;;;4980045;28;20038;-87
2022/12/09 05:48:04;;;;;;;22.92;13.30;;;1.20;99.90;;;;;;5004112;28;20081;-88
2022/12/09 05:50:29;;;;;;;24.50;13.57;;;1.20;99.90;;;;;;4996870;28;20035;-88
2022/12/09 05:52:55;;;;;;;27.30;15.50;;;1.10;99.90;;;;;;4983566;28;20051;-87
2022/12/09 05:55:21;;;;;;;25.50;13.82;;;1.40;99.90;;;;;;5003952;28;20046;-88
2022/12/09 05:57:46;;;;;;;22.40;13.60;;;1.90;99.90;;;;;;4980240;28;20042;-88
2022/12/09 06:00:13;;;;;;;25.17;14.70;;;1.10;99.90;;;;;;4996446;28;20042;-88
2022/12/09 06:02:39;;;;;;;24.00;14.27;;;1.00;99.90;;;;;;4996625;28;20053;-88
2022/12/09 06:05:05;;;;;;;28.23;16.30;;;1.00;99.90;;;;;;4995888;28;20046;-88
2022/12/09 06:07:30;;;;;;;29.33;17.30;;;0.90;99.90;;;;;;4963571;28;20049;-88
2022/12/09 06:09:56;;;;;;;27.83;16.20;;;2.50;99.90;;;;;;4979621;28;20042;-87
2022/12/09 06:12:22;;;;;;;28.52;15.43;;;0.90;99.90;;;;;;4963702;28;20046;-87
2022/12/09 06:14:47;;;;;;;25.33;15.10;;;2.40;99.90;;;;;;5003781;28;20042;-88
2022/12/09 06:17:13;;;;;;;28.60;15.88;;;2.50;99.90;;;;;;5004552;28;20137;-87
2022/12/09 06:19:39;;;;;;;25.70;15.13;;;0.90;99.90;;;;;;4970298;28;20053;-87
2022/12/09 06:22:04;;;;;;;28.17;15.75;;;0.80;99.90;;;;;;4995905;28;20034;-88
2022/12/09 06:24:31;;;;;;;28.58;15.50;;;0.80;99.90;;;;;;4995337;28;20050;-88
2022/12/09 06:26:56;;;;;;;23.77;14.65;;;0.80;99.90;;;;;;5002240;28;20129;-88
2022/12/09 06:29:22;;;;;;;27.17;15.93;;;0.80;99.90;;;;;;4963644;28;20065;-88
2022/12/09 06:31:48;;;;;;;27.85;15.80;;;0.80;99.90;;;;;;4964261;28;20462;-88
2022/12/09 06:34:13;;;;;;;30.08;16.45;;;0.80;99.90;;;;;;4995582;28;20064;-88
2022/12/09 06:36:39;;;;;;;28.35;16.80;;;0.80;99.90;;;;;;4972319;28;20117;-87
2022/12/09 06:39:05;;;;;;;37.05;19.45;;;0.70;99.90;;;;;;4995959;28;20041;-87
2022/12/09 06:41:31;;;;;;;27.48;16.42;;;1.50;99.90;;;;;;4963356;28;20405;-86
2022/12/09 06:43:57;;;;;;;28.42;15.77;;;1.50;99.90;;;;;;4963203;28;20050;-88
2022/12/09 06:46:23;;;;;;;26.60;14.90;;;0.70;99.90;;;;;;4978596;28;20916;-87
2022/12/09 06:48:50;;;;;;;29.80;17.13;;;0.60;99.90;;;;;;4995639;28;20074;-88
2022/12/09 06:51:17;;;;;;;29.27;16.10;;;0.70;99.90;;;;;;4963485;28;20078;-88
2022/12/09 06:53:43;;;;;;;29.85;17.42;;;0.60;99.90;;;;;;4994840;28;20045;-89
2022/12/09 06:56:11;;;;;;;28.17;16.35;;;1.50;99.90;;;;;;4994721;28;20034;-89
2022/12/09 06:58:37;;;;;;;31.55;17.15;;;0.60;99.90;;;;;;4995688;28;20050;-89
2022/12/09 07:01:12;;;;;;;28.27;15.27;;;0.60;99.90;;;;;;4963037;28;20064;-88
2022/12/09 07:03:39;;;;;;;30.93;16.73;;;0.70;99.90;;;;;;4978398;28;20046;-88
2022/12/09 07:06:06;;;;;;;31.58;17.30;;;2.20;99.90;;;;;;4986239;28;20035;-88
2022/12/09 07:08:32;;;;;;;35.90;19.50;;;0.70;99.90;;;;;;4979150;28;20454;-88
2022/12/09 07:10:58;;;;;;;33.75;18.40;;;0.70;99.90;;;;;;4962079;28;20049;-88
2022/12/09 07:13:36;;;;;;;40.03;21.85;;;0.80;99.90;;;;;;5094687;27;1261491;-56
2022/12/09 07:16:02;;;;;;;45.30;21.48;;;0.80;99.90;;;;;;5112360;28;20566;-56
2022/12/09 07:18:27;;;;;;;42.92;21.88;;;0.80;99.90;;;;;;5131218;27;20082;-56
2022/12/09 07:20:53;;;;;;;42.35;21.50;;;0.90;99.90;;;;;;5112952;27;20066;-57
2022/12/09 07:23:19;;;;;;;43.88;21.85;;;1.00;99.90;;;;;;5130054;27;20043;-56
2022/12/09 07:25:53;;;;;;;43.17;23.50;;;1.00;99.90;;;;;;5131797;27;20053;-54
2022/12/09 07:28:18;;;;;;;42.35;22.08;;;1.00;99.90;;;;;;5128511;27;20050;-56
2022/12/09 07:30:44;;;;;;;47.53;24.08;;;1.00;99.90;;;;;;5113665;27;20035;-56
2022/12/09 07:33:10;;;;;;;44.03;23.20;;;1.10;99.90;;;;;;5129310;27;20078;-55
2022/12/09 07:35:35;;;;;;;45.80;23.70;;;1.10;99.90;;;;;;5127336;27;20043;-56
2022/12/09 07:38:01;;;;;;;45.17;23.63;;;1.10;99.90;;;;;;5090635;27;20039;-56
2022/12/09 07:40:27;;;;;;;45.08;24.90;;;1.10;99.90;;;;;;5127468;27;20047;-57
2022/12/09 07:42:52;;;;;;;44.78;23.52;;;1.10;99.90;;;;;;5112832;28;20047;-56
2022/12/09 07:45:18;;;;;;;49.47;22.95;;;1.10;99.90;;;;;;5129040;27;20061;-56
2022/12/09 07:47:43;;;;;;;54.75;24.13;;;1.10;99.90;;;;;;5130739;27;20058;-56
2022/12/09 07:50:10;;;;;;;183.23;28.40;;;1.10;99.90;;;;;;5130384;27;20045;-56
2022/12/09 07:52:35;;;;;;;167.10;25.10;;;1.10;99.90;;;;;;5129743;27;20335;-56
2022/12/09 07:55:01;;;;;;;181.05;24.50;;;1.10;99.90;;;;;;5130838;27;20121;-56
2022/12/09 07:57:27;;;;;;;217.35;28.70;;;1.10;99.90;;;;;;5129020;27;20139;-56
2022/12/09 07:59:53;;;;;;;236.88;26.27;;;1.00;99.90;;;;;;5130542;27;20039;-56
2022/12/09 08:02:19;;;;;;;230.15;23.42;;;0.90;99.90;;;;;;5129845;27;20460;-55
2022/12/09 08:04:45;;;;;;;341.27;27.60;;;0.90;99.90;;;;;;5129531;27;20043;-56
2022/12/09 08:07:10;;;;;;;303.50;25.40;;;0.90;99.90;;;;;;5129730;27;20489;-56
2022/12/09 08:09:36;;;;;;;380.40;28.45;;;0.80;99.90;;;;;;5130053;27;20051;-56
2022/12/09 08:12:02;;;;;;;427.15;26.48;;;0.80;99.90;;;;;;5110898;27;20098;-56
2022/12/09 08:14:27;;;;;;;539.35;34.20;;;0.70;99.90;;;;;;5110987;27;20100;-56
2022/12/09 08:16:53;;;;;;;352.50;28.75;;;0.70;99.90;;;;;;5111413;28;20039;-56
2022/12/09 08:19:19;;;;;;;219.10;26.98;;;0.70;99.90;;;;;;5129083;27;20126;-55
2022/12/09 08:21:44;;;;;;;272.25;28.05;;;0.60;99.90;;;;;;5112715;28;20058;-56
2022/12/09 08:24:11;;;;;;;227.35;25.75;;;0.60;99.90;;;;;;5101550;28;20079;-55
2022/12/09 08:26:38;;;;;;;247.82;26.17;;;0.70;99.90;;;;;;5112801;27;20054;-56
2022/12/09 08:29:11;;;;;;;297.63;25.95;;;0.70;99.90;;;;;;5112000;28;20043;-55
2022/12/09 08:31:38;;;;;;;213.57;24.42;;;0.70;99.90;;;;;;5115126;27;20158;-56
2022/12/09 08:34:04;;;;;;;304.80;28.33;;;0.80;99.90;;;;;;5116962;27;20043;-57
2022/12/09 08:36:30;;;;;;;212.75;24.38;;;0.70;99.90;;;;;;5113795;27;20047;-56
2022/12/09 08:39:00;;;;;;;232.65;27.35;;;0.80;99.90;;;;;;5116663;27;20043;-56
2022/12/09 08:41:34;;;;;;;283.38;30.25;;;0.70;99.90;;;;;;5111782;27;20554;-56
2022/12/09 08:44:15;;;;;;;318.70;27.80;;;0.80;99.90;;;;;;5115907;27;20345;-56
2022/12/09 08:46:43;;;;;;;139.98;25.40;;;0.80;99.90;;;;;;5097846;28;20248;-56
2022/12/09 08:49:10;;;;;;;206.98;21.77;;;0.80;99.90;;;;;;5114469;27;20101;-56
2022/12/09 08:51:36;;;;;;;144.18;23.98;;;0.80;99.90;;;;;;5115841;27;20036;-56
2022/12/09 08:54:04;;;;;;;257.17;24.17;;;0.80;99.90;;;;;;5114966;27;20036;-56
2022/12/09 08:56:30;;;;;;;211.80;26.40;;;0.80;99.90;;;;;;5066334;28;20094;-56
2022/12/09 08:58:56;;;;;;;247.13;28.15;;;0.80;99.90;;;;;;5115152;27;20495;-56
2022/12/09 09:01:36;;;;;;;207.95;27.45;;;0.80;99.90;;;;;;5115512;27;20092;-56
2022/12/09 09:04:05;;;;;;;254.68;28.85;;;0.80;99.90;;;;;;5115411;27;20042;-53
2022/12/09 09:06:31;;;;;;;148.93;25.08;;;0.90;99.90;;;;;;5112817;27;20114;-56
2022/12/09 09:08:57;;;;;;;187.13;26.70;;;0.80;99.90;;;;;;5115063;27;20373;-56
2022/12/09 09:11:25;;;;;;;249.75;26.52;;;0.90;99.90;;;;;;5113552;27;20047;-56
2022/12/09 09:13:51;;;;;;;262.52;28.60;;;0.90;99.90;;;;;;5114366;27;20130;-56
2022/12/09 09:16:23;;;;;;;321.92;29.50;;;1.00;99.90;;;;;;5115061;27;20474;-56
2022/12/09 09:18:49;;;;;;;297.88;26.88;;;1.00;99.90;;;;;;5114231;27;20054;-56
2022/12/09 09:21:17;;;;;;;107.18;23.83;;;1.00;99.90;;;;;;5115630;27;20114;-56
2022/12/09 09:23:43;;;;;;;196.23;27.08;;;1.00;99.90;;;;;;5113370;27;20091;-56
2022/12/09 09:26:15;;;;;;;122.88;21.35;;;1.00;99.90;;;;;;5096569;28;20066;-56
2022/12/09 09:28:41;;;;;;;133.00;24.35;;;1.00;99.90;;;;;;5113211;27;20495;-57
2022/12/09 09:31:09;;;;;;;103.93;24.08;;;1.10;99.90;;;;;;5114805;28;20047;-56
2022/12/09 09:33:35;;;;;;;109.30;24.83;;;1.10;99.90;;;;;;5115830;27;20043;-55
2022/12/09 09:36:03;;;;;;;203.18;26.17;;;1.10;99.90;;;;;;5113548;27;20296;-56
2022/12/09 09:38:31;;;;;;;125.13;25.65;;;1.10;99.90;;;;;;5113907;27;20035;-56
2022/12/09 09:40:59;;;;;;;107.25;24.42;;;1.10;99.90;;;;;;5113658;27;20048;-56
2022/12/09 09:43:30;;;;;;;117.95;24.45;;;1.10;99.90;;;;;;5115406;28;20318;-57
2022/12/09 09:46:04;;;;;;;128.68;23.88;;;1.20;99.90;;;;;;5110749;27;20047;-55
2022/12/09 09:48:32;;;;;;;105.80;25.13;;;1.20;99.90;;;;;;5089988;28;20460;-56
2022/12/09 09:51:17;;;;;;;67.57;20.02;;;1.20;99.90;;;;;;5092299;28;20051;-56
2022/12/09 09:53:44;;;;;;;59.05;18.10;;;1.30;99.90;;;;;;5108438;27;20054;-56
2022/12/09 09:56:16;;;;;;;52.83;20.42;;;1.10;99.90;;;;;;5112317;27;20066;-56
2022/12/09 09:58:55;;;;;;;66.90;19.50;;;1.60;99.90;;;;;;5109269;27;20081;-53
2022/12/09 10:01:24;;;;;;;56.40;20.38;;;1.00;99.90;;;;;;5113052;28;20039;-56
2022/12/09 10:04:02;;;;;;;49.72;21.33;;;1.00;99.90;;;;;;5113359;27;20092;-56
2022/12/09 10:06:44;;;;;;;42.33;20.75;;;1.00;99.90;;;;;;5109235;27;20776;-56
2022/12/09 10:09:27;;;;;;;44.13;20.75;;;1.10;99.90;;;;;;5093001;27;20047;-56
2022/12/09 10:11:56;;;;;;;49.20;21.30;;;1.20;99.90;;;;;;5111636;28;20108;-56
2022/12/09 10:14:28;;;;;;;38.70;20.00;;;1.30;99.90;;;;;;5109875;28;20044;-57
2022/12/09 10:17:10;;;;;;;38.08;20.55;;;1.40;99.90;;;;;;5112352;27;20040;-56
2022/12/09 10:19:41;;;;;;;43.45;21.75;;;1.60;99.90;;;;;;5110840;28;20063;-56
2022/12/09 10:22:22;;;;;;;37.33;20.38;;;2.00;99.90;;;;;;5113848;27;20050;-56
2022/12/09 10:24:53;;;;;;;38.95;21.48;;;2.30;99.90;;;;;;5112050;28;20172;-56
2022/12/09 10:27:39;;;;;;;35.55;19.05;;;2.30;99.90;;;;;;5111857;27;20050;-56
2022/12/09 10:30:16;;;;;;;34.85;18.98;;;2.30;99.90;;;;;;5114030;27;20524;-56
2022/12/09 10:32:41;;;;;;;40.53;20.10;;;2.30;99.90;;;;;;5112444;27;20044;-56
2022/12/09 10:35:18;;;;;;;35.75;20.92;;;2.20;99.90;;;;;;5113868;28;20055;-56
2022/12/09 10:37:44;;;;;;;37.70;20.42;;;2.30;99.90;;;;;;5114704;27;20051;-55
2022/12/09 10:40:14;;;;;;;38.22;21.30;;;2.70;99.90;;;;;;5112657;27;20115;-56
2022/12/09 10:45:29;;;;;;;39.00;21.45;;;3.90;99.90;;;;;;5112013;27;20043;-56
2022/12/09 10:47:55;;;;;;;36.20;19.88;;;2.70;99.90;;;;;;5113023;28;20065;-56
2022/12/09 10:50:35;;;;;;;38.60;20.80;;;2.60;99.90;;;;;;5089731;28;20046;-55
2022/12/09 10:53:11;;;;;;;37.60;20.70;;;2.60;99.90;;;;;;5113252;28;20051;-56
2022/12/09 10:55:41;;;;;;;35.63;20.58;;;2.50;99.90;;;;;;5115115;27;20047;-56
2022/12/09 10:58:23;;;;;;;31.88;17.98;;;2.50;99.90;;;;;;5091968;28;20035;-56
2022/12/09 11:01:09;;;;;;;31.38;17.63;;;2.80;99.90;;;;;;5110244;28;20039;-56
2022/12/09 11:03:47;;;;;;;31.05;18.27;;;3.70;99.90;;;;;;5079475;28;20104;-56
2022/12/09 11:06:17;;;;;;;31.63;18.75;;;4.20;99.90;;;;;;5111367;28;20103;-57
2022/12/09 11:08:59;;;;;;;29.27;17.95;;;4.50;99.90;;;;;;5094882;28;20453;-56
2022/12/09 11:11:58;;;;;;;31.90;18.73;;;4.60;99.90;;;;;;5111235;28;20063;-56
2022/12/09 11:14:27;;;;;;;28.00;14.50;;;4.80;99.90;;;;;;5076221;28;20401;-56
2022/12/09 11:17:10;;;;;;;32.22;16.88;;;5.20;99.90;;;;;;5082151;28;20111;-57
2022/12/09 11:19:37;;;;;;;32.75;18.30;;;5.70;99.90;;;;;;5109894;28;20043;-56
2022/12/09 11:22:19;;;;;;;28.55;17.38;;;6.10;99.90;;;;;;5092895;28;20036;-56
2022/12/09 11:24:45;;;;;;;28.25;16.55;;;6.50;99.90;;;;;;5111412;28;20047;-56
2022/12/09 11:27:38;;;;;;;26.60;16.77;;;6.70;99.90;;;;;;5111850;28;20901;-55
2022/12/09 11:30:14;;;;;;;26.10;15.65;;;6.60;99.90;;;;;;5088447;28;20075;-57
2022/12/09 11:33:00;;;;;;;26.40;16.05;;;6.30;99.90;;;;;;5110542;28;20051;-57
2022/12/09 11:35:31;;;;;;;26.37;15.50;;;6.40;99.90;;;;;;5093568;28;20132;-55
2022/12/09 11:38:02;;;;;;;22.48;13.00;;;6.40;99.90;;;;;;5112382;28;20039;-56
2022/12/09 11:40:29;;;;;;;27.65;15.77;;;6.10;99.90;;;;;;5071870;28;20127;-56
2022/12/09 11:42:55;;;;;;;23.02;14.70;;;5.70;99.90;;;;;;5093580;28;20051;-56
2022/12/09 11:45:29;;;;;;;23.60;15.10;;;5.70;99.90;;;;;;5092492;28;20173;-56
2022/12/09 11:48:22;;;;;;;25.05;16.10;;;5.70;99.90;;;;;;5111885;28;20031;-56
2022/12/09 11:50:50;;;;;;;24.83;15.43;;;5.50;99.90;;;;;;5102785;28;20059;-56
2022/12/09 11:53:39;;;;;;;24.15;14.15;;;5.20;99.90;;;;;;5110086;28;20039;-56
2022/12/09 11:56:19;;;;;;;25.27;14.65;;;4.90;99.90;;;;;;5093923;28;20212;-55
2022/12/09 11:59:03;;;;;;;27.17;16.80;;;4.80;99.90;;;;;;5112747;27;20071;-56
2022/12/09 12:01:50;;;;;;;26.70;14.45;;;4.70;99.90;;;;;;5111415;27;20047;-56
2022/12/09 12:04:23;;;;;;;26.42;14.55;;;4.60;99.90;;;;;;5114780;27;20039;-55
2022/12/09 12:07:12;;;;;;;29.92;15.23;;;4.50;99.90;;;;;;5113607;27;20364;-56
2022/12/09 12:09:55;;;;;;;27.77;16.13;;;4.40;99.90;;;;;;5095824;28;20043;-56
2022/12/09 12:12:40;;;;;;;26.45;15.10;;;4.20;99.90;;;;;;5116102;28;20060;-55
2022/12/09 12:15:15;;;;;;;29.42;17.02;;;4.10;99.90;;;;;;5091244;27;20052;-56
2022/12/09 12:17:45;;;;;;;29.70;17.13;;;4.00;99.90;;;;;;5115420;27;20047;-56
2022/12/09 12:20:12;;;;;;;30.60;17.00;;;4.00;99.90;;;;;;5076242;27;20051;-56
2022/12/09 12:22:37;;;;;;;29.73;17.10;;;4.00;99.90;;;;;;5096289;28;20073;-56
2022/12/09 12:25:39;;;;;;;27.42;16.70;;;4.00;99.90;;;;;;5114864;27;20031;-54
2022/12/09 12:28:04;;;;;;;27.15;16.55;;;4.00;99.90;;;;;;5093949;28;20042;-57
2022/12/09 12:30:55;;;;;;;28.42;16.85;;;4.30;99.90;;;;;;5113838;27;20040;-56
2022/12/09 12:33:55;;;;;;;26.75;16.15;;;4.00;99.90;;;;;;5115032;27;20487;-56
2022/12/09 12:36:26;;;;;;;27.15;16.50;;;4.10;99.90;;;;;;5113564;27;20036;-56
2022/12/09 12:39:17;;;;;;;29.00;15.95;;;4.00;99.90;;;;;;5113627;27;20036;-56
2022/12/09 12:41:43;;;;;;;29.63;15.68;;;3.90;99.90;;;;;;5093001;28;20069;-56
2022/12/09 12:47:19;;;;;;;25.67;15.60;;;3.90;99.90;;;;;;5115058;28;20079;-56
2022/12/09 12:50:23;;;;;;;26.17;16.00;;;4.00;99.90;;;;;;5095683;27;20151;-56
2022/12/09 12:53:41;;;;;;;26.27;16.45;;;4.20;99.90;;;;;;5114465;27;20046;-56
2022/12/09 12:56:15;;;;;;;27.10;16.20;;;4.30;99.90;;;;;;5099234;28;20140;-56
2022/12/09 12:58:59;;;;;;;24.70;14.55;;;4.10;99.90;;;;;;5114020;27;20200;-56
2022/12/09 13:01:34;;;;;;;28.02;16.70;;;4.10;99.90;;;;;;5113678;27;20048;-56